Time;durP1;ratioP1;P1;durP2;ratioP2;P2;SDS_P1;SDS_P2;PMS_P1;PMS_P2;Temp;Humidity;BMP_temperature;BMP_pressure;BME280_temperature;BME280_humidity;BME280_pressure;Samples;Min_cycle;Max_cycle;Signal;HPM_P1;HPM_P2
2022/03/21 00:02:02;;;;;;;32.00;18.10;;;;;;;-4.60;49.25;99463.10;110322;1245;69240;-64
2022/03/21 00:04:32;;;;;;;21.70;15.00;;;;;;;-4.67;51.33;99464.83;110181;1246;59749;-65
2022/03/21 00:07:01;;;;;;;21.20;15.00;;;;;;;-4.71;51.61;99465.27;110381;1244;59678;-64
2022/03/21 00:09:32;;;;;;;20.70;14.60;;;;;;;-4.75;49.79;99463.30;110309;1244;72148;-63
2022/03/21 00:12:03;;;;;;;18.20;13.00;;;;;;;-4.79;49.67;99464.23;110179;1247;68743;-64
2022/03/21 00:14:33;;;;;;;19.90;12.60;;;;;;;-4.83;47.44;99465.34;110364;1247;69345;-63
2022/03/21 00:17:03;;;;;;;28.00;16.70;;;;;;;-4.84;49.13;99462.77;110095;1247;59712;-65
2022/03/21 00:19:33;;;;;;;20.40;14.20;;;;;;;-4.82;48.56;99462.64;110211;1247;59683;-66
2022/03/21 00:22:03;;;;;;;16.30;12.80;;;;;;;-4.82;48.54;99460.27;110485;1245;71100;-65
2022/03/21 00:24:32;;;;;;;17.70;12.10;;;;;;;-4.82;48.21;99456.86;110281;1247;68355;-64
2022/03/21 00:27:03;;;;;;;18.20;12.30;;;;;;;-4.84;47.04;99452.73;110297;1245;68446;-64
2022/03/21 00:29:35;;;;;;;17.80;9.70;;;;;;;-4.83;47.67;99452.41;110099;1247;59726;-65
2022/03/21 00:32:07;;;;;;;26.30;15.60;;;;;;;-4.87;45.92;99447.23;110165;1248;59786;-67
2022/03/21 00:34:37;;;;;;;23.90;12.10;;;;;;;-4.87;46.36;99439.57;110116;1247;71800;-65
2022/03/21 00:37:09;;;;;;;23.80;14.90;;;;;;;-4.86;46.17;99436.36;110362;1247;68377;-64
2022/03/21 00:39:40;;;;;;;20.60;12.50;;;;;;;-4.82;46.74;99437.28;110410;1244;69230;-64
2022/03/21 00:42:10;;;;;;;21.10;13.90;;;;;;;-4.81;46.96;99438.50;110357;1247;59729;-64
2022/03/21 00:44:40;;;;;;;22.70;15.70;;;;;;;-4.79;46.36;99437.19;110190;1247;59698;-65
2022/03/21 00:47:11;;;;;;;17.60;10.10;;;;;;;-4.78;46.24;99433.64;109931;1248;70567;-62
2022/03/21 00:49:41;;;;;;;20.60;12.00;;;;;;;-4.79;49.17;99433.45;110107;1247;68795;-62
2022/03/21 00:52:11;;;;;;;22.50;14.00;;;;;;;-4.84;48.04;99436.75;110094;1247;69207;-63
2022/03/21 00:54:42;;;;;;;17.50;11.60;;;;;;;-4.88;46.81;99436.17;110107;1248;59696;-62
2022/03/21 00:57:12;;;;;;;19.50;12.50;;;;;;;-4.92;47.41;99437.44;110374;1245;59748;-62
2022/03/21 00:59:43;;;;;;;21.20;12.50;;;;;;;-4.96;46.83;99433.92;110301;1245;71529;-60
2022/03/21 01:02:13;;;;;;;;;;;;;;;-4.99;47.25;99435.05;110319;1245;68638;-62
2022/03/21 01:04:45;;;;;;;17.30;11.60;;;;;;;-5.03;47.63;99433.95;110254;1244;69282;-62
2022/03/21 01:07:16;;;;;;;14.00;9.70;;;;;;;-5.05;49.19;99434.77;110400;1245;59715;-63
2022/03/21 01:09:46;;;;;;;23.70;16.80;;;;;;;-5.06;49.65;99432.86;110403;1245;59663;-62
2022/03/21 01:12:16;;;;;;;21.60;14.10;;;;;;;-5.10;47.90;99428.36;110162;1247;72363;-64
2022/03/21 01:14:46;;;;;;;21.00;13.10;;;;;;;-5.15;49.04;99429.12;110177;1247;67770;-64
2022/03/21 01:17:16;;;;;;;;;;;;;;;-5.18;47.97;99431.08;110118;1247;68465;-65
2022/03/21 01:19:48;;;;;;;22.90;14.40;;;;;;;-5.22;50.41;99429.31;110175;1247;59682;-65
2022/03/21 01:22:18;;;;;;;26.70;15.00;;;;;;;-5.23;48.55;99431.67;110238;1247;59713;-61
2022/03/21 01:24:49;;;;;;;31.20;18.80;;;;;;;-5.26;47.95;99431.09;110052;1247;70696;-62
2022/03/21 01:27:20;;;;;;;26.50;18.20;;;;;;;-5.28;49.46;99428.83;109817;1250;68606;-62
2022/03/21 01:29:50;;;;;;;27.50;15.50;;;;;;;-5.27;49.89;99427.31;110043;1248;68832;-60
2022/03/21 01:32:23;;;;;;;27.80;16.40;;;;;;;-5.27;49.52;99428.16;110077;1248;59671;-60
2022/03/21 01:34:53;;;;;;;26.50;16.60;;;;;;;-5.27;49.66;99425.11;110191;1247;59668;-64
2022/03/21 01:37:23;;;;;;;25.20;17.00;;;;;;;-5.23;49.76;99426.05;110204;1247;71547;-63
2022/03/21 01:39:53;;;;;;;;;;;;;;;-5.15;49.69;99423.84;110115;1248;67648;-62
2022/03/21 01:42:23;;;;;;;34.90;19.70;;;;;;;-5.10;49.82;99424.80;110192;1245;68881;-64
2022/03/21 01:44:58;;;;;;;36.40;20.50;;;;;;;-5.05;50.32;99425.92;110165;1247;59747;-64
2022/03/21 01:47:28;;;;;;;33.90;18.40;;;;;;;-5.02;50.69;99426.67;110154;1247;59783;-64
2022/03/21 01:49:59;;;;;;;23.00;16.00;;;;;;;-5.08;50.83;99427.56;110106;1247;70582;-65
2022/03/21 01:52:30;;;;;;;28.10;13.90;;;;;;;-5.09;50.80;99425.48;110117;1247;68550;-65
2022/03/21 01:57:51;;;;;;;27.50;17.80;;;;;;;-5.03;52.16;99423.24;110116;1246;59748;-66
2022/03/21 02:00:24;;;;;;;32.70;18.70;;;;;;;-5.03;50.94;99414.74;110256;1247;59636;-65
2022/03/21 02:02:56;;;;;;;23.60;14.60;;;;;;;-5.05;51.64;99418.46;110168;1247;70857;-64
2022/03/21 02:05:28;;;;;;;27.20;15.90;;;;;;;-5.10;51.69;99420.05;110126;1247;66762;-63
2022/03/21 02:07:58;;;;;;;24.40;14.70;;;;;;;-5.17;50.78;99418.70;110094;1248;68685;-65
2022/03/21 02:10:29;;;;;;;26.90;16.20;;;;;;;-5.24;51.32;99414.63;110090;1247;60321;-67
2022/03/21 02:13:02;;;;;;;17.40;10.00;;;;;;;-5.31;52.91;99411.75;110127;1247;59676;-64
2022/03/21 02:15:32;;;;;;;25.40;15.20;;;;;;;-5.38;51.33;99412.62;110159;1246;70732;-66
2022/03/21 02:18:04;;;;;;;26.10;15.50;;;;;;;-5.42;51.15;99411.34;110204;1246;67681;-66
2022/03/21 02:20:36;;;;;;;26.10;19.00;;;;;;;-5.47;51.95;99410.04;110430;1247;69118;-61
2022/03/21 02:23:29;;;;;;;24.00;14.30;;;;;;;-5.49;52.03;99412.05;110214;1247;59760;-62
2022/03/21 02:26:01;;;;;;;23.00;13.40;;;;;;;-5.49;51.72;99411.87;110075;1248;59716;-64
2022/03/21 02:28:32;;;;;;;20.40;13.70;;;;;;;-5.49;52.63;99409.33;110101;1247;70765;-61
2022/03/21 02:31:03;;;;;;;20.80;11.90;;;;;;;-5.45;52.57;99409.74;110220;1247;69809;-62
2022/03/21 02:33:34;;;;;;;20.30;12.90;;;;;;;-5.46;50.96;99406.32;110342;1246;67433;-64
2022/03/21 02:36:05;;;;;;;22.70;13.60;;;;;;;-5.48;52.27;99409.86;110155;1247;59712;-62
2022/03/21 02:38:37;;;;;;;28.00;19.50;;;;;;;-5.52;53.02;99412.46;110425;1245;59744;-61
2022/03/21 02:41:08;;;;;;;38.00;22.10;;;;;;;-5.64;54.11;99414.40;110255;1247;71568;-61
2022/03/21 02:43:59;;;;;;;28.50;18.90;;;;;;;-5.85;54.99;99416.77;110218;1247;67710;-61
2022/03/21 02:46:29;;;;;;;30.50;18.70;;;;;;;-6.03;56.68;99419.09;110345;1247;69401;-60
2022/03/21 02:48:59;;;;;;;;;;;;;;;-6.13;56.63;99418.83;110311;1247;59657;-61
2022/03/21 02:51:32;;;;;;;23.70;15.80;;;;;;;-6.24;56.32;99426.88;110079;1247;59681;-60
2022/03/21 02:54:03;;;;;;;24.30;15.10;;;;;;;-6.33;55.04;99425.95;110132;1247;70739;-63
2022/03/21 02:56:34;;;;;;;19.90;14.40;;;;;;;-6.41;56.03;99428.10;109601;1245;1017988;-61
2022/03/21 02:59:05;;;;;;;20.30;13.80;;;;;;;-6.48;56.43;99426.90;110129;1247;68946;-60
2022/03/21 03:01:36;;;;;;;;;;;;;;;-6.54;57.98;99427.41;110085;1248;59760;-62
2022/03/21 03:04:08;;;;;;;21.30;12.90;;;;;;;-6.62;59.99;99427.70;110299;1247;59694;-64
2022/03/21 03:06:40;;;;;;;26.00;16.20;;;;;;;-6.66;60.29;99425.73;110134;1247;69713;-63
2022/03/21 03:09:10;;;;;;;33.20;19.30;;;;;;;-6.71;59.72;99425.27;109944;1246;68693;-65
2022/03/21 03:11:40;;;;;;;;;;;;;;;-6.72;57.91;99426.92;110362;1245;69254;-64
2022/03/21 03:14:12;;;;;;;29.00;14.50;;;;;;;-6.72;57.60;99422.02;110243;1247;59681;-65
2022/03/21 03:16:43;;;;;;;21.20;12.70;;;;;;;-6.74;57.52;99421.80;110359;1247;59731;-64
2022/03/21 03:19:14;;;;;;;25.50;16.40;;;;;;;-6.75;58.84;99423.44;110210;1247;70816;-63
2022/03/21 03:21:48;;;;;;;15.10;9.30;;;;;;;-6.80;57.96;99423.48;110112;1247;68610;-62
2022/03/21 03:24:22;;;;;;;30.80;18.40;;;;;;;-6.86;59.38;99418.73;110271;1247;69409;-61
2022/03/21 03:26:52;;;;;;;15.90;11.00;;;;;;;-6.91;57.96;99420.29;110218;1247;59621;-62
2022/03/21 03:29:22;;;;;;;16.30;10.20;;;;;;;-6.96;56.87;99418.97;110238;1247;59689;-60
2022/03/21 03:31:53;;;;;;;30.80;16.10;;;;;;;-6.98;58.34;99422.96;110208;1247;70813;-64
2022/03/21 03:34:23;;;;;;;15.00;9.50;;;;;;;-7.01;55.46;99421.53;110199;1247;68480;-62
2022/03/21 03:36:55;;;;;;;14.40;8.90;;;;;;;-7.03;55.52;99419.44;110058;1245;68534;-63
2022/03/21 03:39:26;;;;;;;28.90;18.80;;;;;;;-7.04;55.01;99418.88;110431;1246;59686;-61
2022/03/21 03:41:57;;;;;;;34.40;19.60;;;;;;;-7.00;59.06;99421.20;110076;1247;59694;-63
2022/03/21 03:44:28;;;;;;;27.10;15.60;;;;;;;-7.06;58.84;99425.95;110147;1247;70838;-61
2022/03/21 03:46:58;;;;;;;28.30;18.20;;;;;;;-7.11;55.63;99421.73;110151;1247;68545;-63
2022/03/21 03:49:29;;;;;;;;;;;;;;;-7.10;57.12;99428.55;110255;1247;68602;-63
2022/03/21 03:51:58;;;;;;;27.30;17.90;;;;;;;-7.05;58.76;99429.71;110388;1247;60085;-65
2022/03/21 03:54:28;;;;;;;30.40;18.30;;;;;;;-6.91;58.96;99426.56;110318;1247;59654;-66
2022/03/21 03:56:59;;;;;;;;;;;;;;;-6.68;62.38;99431.95;109937;1248;71412;-65
2022/03/21 03:59:29;;;;;;;21.60;14.50;;;;;;;-6.63;60.32;99425.66;110024;1248;68409;-60
2022/03/21 04:01:59;;;;;;;34.00;19.70;;;;;;;-6.61;59.81;99423.83;110071;1247;68258;-62
2022/03/21 04:04:29;;;;;;;;;;;;;;;-6.61;59.39;99422.64;109978;1248;59757;-64
2022/03/21 04:06:59;;;;;;;31.40;20.00;;;;;;;-6.50;61.28;99427.02;110181;1246;59632;-63
2022/03/21 04:09:29;;;;;;;31.50;18.50;;;;;;;-6.41;61.28;99428.11;110125;1247;70973;-64
2022/03/21 04:11:59;;;;;;;21.40;14.10;;;;;;;-6.33;59.73;99426.63;110178;1247;68020;-64
2022/03/21 04:14:29;;;;;;;30.10;19.70;;;;;;;-6.29;57.75;99423.67;110238;1246;69251;-64
2022/03/21 04:17:00;;;;;;;32.60;20.00;;;;;;;-6.23;58.79;99426.55;110429;1245;59732;-65
2022/03/21 04:19:30;;;;;;;32.70;19.20;;;;;;;-6.18;58.81;99429.75;110151;1247;59770;-66
2022/03/21 04:21:59;;;;;;;29.30;17.90;;;;;;;-6.17;58.44;99427.39;110292;1245;70627;-64
2022/03/21 04:24:29;;;;;;;27.70;18.00;;;;;;;-6.20;57.25;99426.95;110188;1247;68502;-61
2022/03/21 04:26:59;;;;;;;35.80;21.30;;;;;;;-6.22;56.86;99429.81;110129;1247;69488;-61
2022/03/21 04:29:29;;;;;;;33.20;20.70;;;;;;;-6.24;57.76;99431.27;110042;1248;59799;-64
2022/03/21 04:31:59;;;;;;;31.60;20.60;;;;;;;-6.29;58.99;99426.90;110076;1247;59710;-61
2022/03/21 04:34:29;;;;;;;39.40;23.80;;;;;;;-6.38;59.00;99424.79;110155;1246;70788;-61
2022/03/21 04:36:58;;;;;;;24.20;16.20;;;;;;;-6.44;58.36;99425.14;110038;1247;68478;-62
2022/03/21 04:39:28;;;;;;;23.50;15.70;;;;;;;-6.48;59.25;99424.70;110100;1247;69683;-62
2022/03/21 04:41:59;;;;;;;33.40;21.00;;;;;;;-6.54;59.78;99420.98;110109;1247;59742;-61
2022/03/21 04:44:28;;;;;;;46.90;27.70;;;;;;;-6.60;60.85;99430.45;110232;1247;59667;-60
2022/03/21 04:46:58;;;;;;;38.60;24.40;;;;;;;-6.67;59.24;99431.65;110142;1247;70872;-62
2022/03/21 04:49:27;;;;;;;21.20;13.00;;;;;;;-6.67;59.11;99430.98;110231;1247;68700;-62
2022/03/21 04:51:57;;;;;;;53.00;30.70;;;;;;;-6.62;59.17;99431.79;110214;1247;69344;-60
2022/03/21 04:54:28;;;;;;;33.20;23.50;;;;;;;-6.53;59.54;99431.36;110132;1247;59739;-64
2022/03/21 04:56:57;;;;;;;31.70;20.40;;;;;;;-6.45;60.74;99432.09;110094;1247;59630;-61
2022/03/21 04:59:27;;;;;;;30.30;19.10;;;;;;;-6.37;60.81;99434.65;110127;1247;70856;-63
2022/03/21 05:01:56;;;;;;;22.40;15.60;;;;;;;-6.26;59.58;99441.23;109813;1249;67925;-62
2022/03/21 05:04:26;;;;;;;33.20;20.60;;;;;;;-6.07;59.34;99437.65;110330;1245;68853;-63
2022/03/21 05:06:55;;;;;;;39.50;24.30;;;;;;;-5.94;59.28;99438.14;110040;1247;59761;-63
2022/03/21 05:09:25;;;;;;;46.70;27.10;;;;;;;-5.71;58.42;99437.85;110050;1247;59678;-62
2022/03/21 05:11:54;;;;;;;44.20;25.80;;;;;;;-5.47;58.36;99437.91;110157;1247;71574;-65
2022/03/21 05:14:24;;;;;;;33.30;21.10;;;;;;;-5.31;57.74;99436.59;110095;1247;68412;-62
2022/03/21 05:16:53;;;;;;;35.10;20.50;;;;;;;-5.24;57.70;99435.38;110350;1247;68430;-62
2022/03/21 05:19:23;;;;;;;29.60;19.20;;;;;;;-5.10;57.47;99434.31;110060;1247;59697;-64
2022/03/21 05:21:52;;;;;;;26.80;18.20;;;;;;;-4.96;57.09;99433.59;110283;1247;59661;-62
2022/03/21 05:32:46;;;;;;;42.40;24.40;;;;;;;-4.15;55.07;99429.23;110111;1246;59745;-60
2022/03/21 05:38:03;;;;;;;37.00;21.40;;;;;;;-3.28;55.60;99438.84;110325;1246;71549;-64
2022/03/21 05:40:34;;;;;;;42.30;25.70;;;;;;;-2.89;54.20;99434.45;110080;1247;68992;-62
2022/03/21 05:43:04;;;;;;;44.70;26.60;;;;;;;-2.50;53.71;99437.48;110341;1247;68719;-65
2022/03/21 05:45:33;;;;;;;60.20;37.00;;;;;;;-2.29;52.44;99443.54;109990;1247;59746;-65
2022/03/21 05:50:51;;;;;;;49.20;28.10;;;;;;;-2.03;50.62;99447.73;110374;1246;70725;-65
2022/03/21 05:53:21;;;;;;;39.30;25.10;;;;;;;-1.77;49.86;99454.30;110128;1247;68572;-64
2022/03/21 05:55:50;;;;;;;33.50;22.50;;;;;;;-1.57;49.79;99462.52;110095;1247;69465;-64
2022/03/21 05:58:19;;;;;;;31.50;22.90;;;;;;;-1.18;49.39;99460.09;110340;1246;59763;-65
2022/03/21 06:00:49;;;;;;;29.60;19.20;;;;;;;-0.94;49.25;99456.81;110370;1244;59672;-66
2022/03/21 06:03:18;;;;;;;;;;;;;;;-0.63;49.15;99458.69;110362;1245;71630;-64
2022/03/21 06:05:49;;;;;;;37.00;23.80;;;;;;;-0.41;48.84;99457.74;110111;1247;67730;-66
2022/03/21 06:08:20;;;;;;;37.40;21.00;;;;;;;-0.12;47.37;99463.68;110111;1247;68754;-65
2022/03/21 06:10:49;;;;;;;29.60;20.40;;;;;;;0.11;46.65;99463.90;110134;1247;59762;-65
2022/03/21 06:13:19;;;;;;;34.30;22.00;;;;;;;0.21;45.67;99465.47;110297;1247;60036;-61
2022/03/21 06:15:49;;;;;;;32.50;22.50;;;;;;;0.37;45.60;99465.48;110077;1247;71158;-60
2022/03/21 06:18:18;;;;;;;39.70;26.00;;;;;;;0.61;45.83;99462.39;110096;1247;68720;-63
2022/03/21 06:20:47;;;;;;;35.30;25.60;;;;;;;0.77;45.42;99464.10;110223;1247;69391;-66
2022/03/21 06:23:17;;;;;;;41.30;26.20;;;;;;;1.11;44.78;99467.48;110201;1247;59738;-63
2022/03/21 06:25:46;;;;;;;41.10;28.90;;;;;;;1.38;43.17;99466.39;110323;1247;59621;-64
2022/03/21 06:28:16;;;;;;;38.50;25.90;;;;;;;1.52;42.94;99464.10;110282;1246;71556;-62
2022/03/21 06:30:46;;;;;;;31.10;21.20;;;;;;;1.37;42.48;99460.71;110176;1247;67908;-62
2022/03/21 06:33:17;;;;;;;36.80;23.00;;;;;;;1.76;42.26;99463.67;110144;1247;68764;-61
2022/03/21 06:35:46;;;;;;;33.00;21.50;;;;;;;1.87;41.29;99458.98;110040;1247;59750;-59
2022/03/21 06:38:16;;;;;;;40.20;28.50;;;;;;;2.05;41.72;99459.55;110029;1247;59679;-61
2022/03/21 06:40:46;;;;;;;26.00;18.90;;;;;;;2.39;40.83;99455.55;110053;1247;70922;-64
2022/03/21 06:43:22;;;;;;;40.40;27.30;;;;;;;2.56;40.85;99454.74;110051;1247;68013;-62
2022/03/21 06:45:54;;;;;;;33.90;22.30;;;;;;;2.62;40.56;99454.67;110170;1247;69801;-64
2022/03/21 06:48:25;;;;;;;39.40;28.00;;;;;;;2.64;39.78;99455.34;110032;1247;59684;-62
2022/03/21 06:50:55;;;;;;;39.10;26.80;;;;;;;2.91;39.98;99456.31;109829;1246;59662;-62
2022/03/21 06:53:24;;;;;;;;;;;;;;;3.01;39.87;99453.46;110141;1247;70984;-62
2022/03/21 06:55:54;;;;;;;34.80;24.80;;;;;;;3.18;39.06;99451.74;110201;1247;68052;-61
2022/03/21 06:58:23;;;;;;;35.00;24.30;;;;;;;3.22;38.63;99453.77;110146;1247;69463;-61
2022/03/21 07:00:53;;;;;;;38.70;25.50;;;;;;;3.07;38.86;99452.88;110244;1247;59666;-61
2022/03/21 07:03:24;;;;;;;33.90;24.80;;;;;;;3.16;38.64;99451.92;110191;1247;59684;-62
2022/03/21 07:05:54;;;;;;;29.80;22.80;;;;;;;3.29;38.31;99447.48;110177;1245;70576;-61
2022/03/21 07:08:30;;;;;;;30.60;21.50;;;;;;;3.56;37.77;99449.08;110104;1247;68013;-64
2022/03/21 07:11:00;;;;;;;25.30;19.10;;;;;;;3.95;36.78;99452.70;110087;1247;69365;-63
2022/03/21 07:13:30;;;;;;;30.00;22.50;;;;;;;4.18;36.38;99449.63;110076;1247;59738;-65
2022/03/21 07:15:59;;;;;;;27.10;20.70;;;;;;;4.74;35.35;99453.92;110042;1247;59660;-64
2022/03/21 07:18:29;;;;;;;31.20;22.70;;;;;;;5.08;34.68;99453.51;110109;1247;71508;-64
2022/03/21 07:20:58;;;;;;;33.30;23.80;;;;;;;5.64;34.29;99458.80;110328;1246;68442;-63
2022/03/21 07:23:27;;;;;;;30.90;23.20;;;;;;;5.64;33.78;99460.03;110101;1246;69687;-63
2022/03/21 07:25:57;;;;;;;35.70;25.80;;;;;;;5.17;34.33;99454.89;110282;1246;59728;-65
2022/03/21 07:28:26;;;;;;;33.30;25.30;;;;;;;5.35;34.26;99454.73;110136;1247;59744;-63
2022/03/21 07:31:17;;;;;;;30.00;20.90;;;;;;;5.92;33.38;99446.64;110369;1244;70772;-62
2022/03/21 07:33:53;;;;;;;38.40;27.90;;;;;;;6.42;32.93;99447.62;110387;1245;67818;-62
2022/03/21 07:36:29;;;;;;;37.00;28.00;;;;;;;6.36;32.70;99450.53;110084;1247;69546;-62
2022/03/21 07:38:58;;;;;;;36.50;26.90;;;;;;;6.16;32.45;99444.91;110262;1244;59736;-64
2022/03/21 07:41:28;;;;;;;31.40;23.20;;;;;;;6.32;32.43;99441.44;110356;1244;59713;-64
2022/03/21 07:43:58;;;;;;;24.70;19.60;;;;;;;6.84;32.09;99443.45;110328;1247;71631;-61
2022/03/21 07:49:15;;;;;;;28.60;21.30;;;;;;;7.20;30.21;99445.84;110053;1245;69412;-63
2022/03/21 07:51:45;;;;;;;26.40;21.00;;;;;;;7.36;29.97;99442.45;110326;1245;59728;-66
2022/03/21 07:54:14;;;;;;;28.00;20.50;;;;;;;7.73;29.23;99441.21;110416;1246;60103;-65
2022/03/21 07:56:43;;;;;;;31.80;21.90;;;;;;;8.07;29.15;99444.20;110169;1247;71710;-62
2022/03/21 07:59:12;;;;;;;30.20;22.50;;;;;;;7.96;28.52;99440.73;110441;1245;66844;-61
2022/03/21 08:01:45;;;;;;;29.00;20.30;;;;;;;8.67;28.16;99437.30;110273;1247;68702;-64
2022/03/21 08:04:17;;;;;;;30.00;20.70;;;;;;;9.07;27.43;99435.44;110422;1247;59686;-64
2022/03/21 08:06:47;;;;;;;26.90;20.50;;;;;;;9.41;27.33;99436.67;110234;1246;59636;-65
2022/03/21 08:09:16;;;;;;;22.80;16.60;;;;;;;9.68;25.99;99438.84;110352;1245;71656;-65
2022/03/21 08:11:46;;;;;;;24.00;19.10;;;;;;;9.87;25.69;99439.34;110316;1246;67835;-66
2022/03/21 08:14:15;;;;;;;26.80;20.40;;;;;;;10.11;25.83;99434.77;110098;1247;70110;-64
2022/03/21 08:16:44;;;;;;;25.50;20.70;;;;;;;10.10;25.21;99430.27;110132;1245;59700;-63
2022/03/21 08:19:16;;;;;;;25.00;18.40;;;;;;;10.52;25.43;99429.32;110164;1247;59698;-66
2022/03/21 08:21:45;;;;;;;30.20;22.50;;;;;;;10.60;24.54;99430.41;110104;1247;70880;-65
2022/03/21 08:24:14;;;;;;;23.40;18.10;;;;;;;11.05;24.22;99423.44;110414;1245;67860;-67
2022/03/21 08:26:44;;;;;;;21.40;16.80;;;;;;;11.29;23.80;99418.95;110390;1244;69444;-67
2022/03/21 08:29:15;;;;;;;18.80;14.80;;;;;;;11.55;23.13;99417.58;110365;1244;59668;-64
2022/03/21 08:31:44;;;;;;;23.40;18.40;;;;;;;11.80;23.15;99413.67;110276;1245;59678;-65
2022/03/21 08:34:14;;;;;;;18.90;15.90;;;;;;;12.13;22.31;99413.21;110146;1247;71575;-64
2022/03/21 08:36:45;;;;;;;22.90;16.60;;;;;;;12.11;22.27;99413.48;110156;1247;69249;-67
2022/03/21 08:39:22;;;;;;;20.20;16.10;;;;;;;12.53;21.89;99414.39;110178;1247;68364;-64
2022/03/21 08:41:54;;;;;;;21.60;16.20;;;;;;;11.84;21.90;99412.06;110402;1244;59714;-61
2022/03/21 08:44:24;;;;;;;18.70;13.50;;;;;;;12.47;21.66;99409.80;110394;1245;59737;-63
2022/03/21 08:46:53;;;;;;;19.90;16.30;;;;;;;13.00;21.04;99406.27;110173;1247;72191;-66
2022/03/21 08:49:27;;;;;;;24.10;15.80;;;;;;;13.07;20.51;99400.70;110135;1247;67923;-66
2022/03/21 08:52:01;;;;;;;18.70;15.90;;;;;;;13.30;20.73;99405.11;110423;1247;69468;-69
2022/03/21 08:54:31;;;;;;;21.40;16.80;;;;;;;13.62;20.40;99402.36;110323;1245;60132;-63
2022/03/21 08:57:04;;;;;;;18.80;15.00;;;;;;;13.81;19.81;99402.23;110159;1244;59612;-65
2022/03/21 08:59:34;;;;;;;16.40;14.40;;;;;;;13.55;20.10;99397.14;110194;1245;70747;-64
2022/03/21 09:02:08;;;;;;;17.10;14.20;;;;;;;13.91;20.18;99399.91;110160;1244;67846;-62
2022/03/21 09:04:39;;;;;;;16.10;13.90;;;;;;;14.03;19.90;99393.81;110230;1245;67797;-62
2022/03/21 09:07:09;;;;;;;18.80;16.70;;;;;;;14.01;19.41;99384.96;110102;1247;59659;-62
2022/03/21 09:09:38;;;;;;;18.20;16.20;;;;;;;13.83;19.38;99386.02;110134;1247;59615;-63
2022/03/21 09:12:08;;;;;;;;;;;;;;;13.71;19.48;99382.92;110142;1247;71504;-62
2022/03/21 09:14:38;;;;;;;15.70;13.40;;;;;;;14.08;20.04;99384.05;110383;1244;67777;-65
2022/03/21 09:17:08;;;;;;;16.20;13.50;;;;;;;14.90;19.31;99381.53;110411;1244;68842;-67
2022/03/21 09:19:37;;;;;;;17.80;14.50;;;;;;;14.95;19.01;99384.15;110433;1244;59792;-66
2022/03/21 09:22:07;;;;;;;15.20;13.10;;;;;;;14.64;18.52;99377.95;110447;1244;59673;-64
2022/03/21 09:24:36;;;;;;;14.70;13.10;;;;;;;15.27;18.27;99378.36;110463;1245;71589;-66
2022/03/21 09:27:05;;;;;;;15.90;13.40;;;;;;;15.12;18.38;99382.83;110441;1246;68116;-68
2022/03/21 09:29:35;;;;;;;;;;;;;;;15.39;18.14;99377.45;110340;1244;69449;-66
2022/03/21 09:32:06;;;;;;;14.30;12.50;;;;;;;16.19;17.91;99371.40;110382;1244;59725;-64
2022/03/21 09:34:39;;;;;;;15.90;13.40;;;;;;;16.71;16.83;99369.53;110352;1244;59650;-62
2022/03/21 09:37:08;;;;;;;14.60;12.20;;;;;;;16.71;17.34;99366.23;110140;1244;70757;-62
2022/03/21 09:39:38;;;;;;;14.20;11.70;;;;;;;17.23;16.98;99366.40;110153;1247;68084;-61
2022/03/21 09:42:08;;;;;;;12.80;11.40;;;;;;;17.93;16.83;99355.27;110401;1244;69479;-63
2022/03/21 09:44:38;;;;;;;13.40;12.00;;;;;;;17.87;16.35;99350.40;110113;1246;59750;-63
2022/03/21 09:49:59;;;;;;;12.90;11.30;;;;;;;17.93;15.40;99348.39;110174;1247;70735;-63
2022/03/21 09:52:30;;;;;;;13.20;11.80;;;;;;;18.41;15.68;99343.63;110473;1244;68688;-65
2022/03/21 09:55:01;;;;;;;16.20;14.40;;;;;;;17.45;15.59;99343.18;110123;1247;68501;-65
2022/03/21 09:57:31;;;;;;;14.10;12.60;;;;;;;17.00;15.90;99333.93;110159;1246;59704;-65
2022/03/21 10:00:01;;;;;;;15.30;13.70;;;;;;;17.86;15.83;99334.59;110204;1247;59682;-65
2022/03/21 10:02:41;;;;;;;15.30;13.40;;;;;;;17.90;15.54;99334.13;110154;1246;72415;-67
2022/03/21 10:05:32;;;;;;;18.70;15.30;;;;;;;17.13;15.59;99332.90;110172;1247;68485;-68
2022/03/21 10:08:14;;;;;;;12.80;11.50;;;;;;;16.56;16.18;99326.36;110068;1247;69377;-66
2022/03/21 10:10:53;;;;;;;12.50;11.20;;;;;;;16.35;16.67;99317.58;110175;1247;59758;-65
2022/03/21 10:13:24;;;;;;;;;;;;;;;17.54;15.89;99316.66;110198;1246;59721;-66
2022/03/21 10:16:16;;;;;;;14.70;13.20;;;;;;;17.59;15.70;99309.39;110125;1246;72161;-64
2022/03/21 10:18:59;;;;;;;16.80;15.10;;;;;;;16.27;16.32;99306.34;110307;1244;68127;-67
2022/03/21 10:21:30;;;;;;;14.70;13.00;;;;;;;16.67;15.89;99306.62;110052;1247;69450;-65
2022/03/21 10:24:07;;;;;;;13.00;11.60;;;;;;;17.00;15.57;99304.39;110310;1245;59688;-65
2022/03/21 10:26:42;;;;;;;11.50;10.00;;;;;;;16.69;15.86;99296.98;110090;1244;59760;-65
2022/03/21 10:29:17;;;;;;;12.70;11.40;;;;;;;17.75;15.47;99296.41;110357;1246;71038;-65
2022/03/21 10:31:48;;;;;;;;;;;;;;;18.24;14.77;99297.80;110291;1244;69479;-66
2022/03/21 10:34:19;;;;;;;13.60;11.20;;;;;;;17.58;15.16;99297.09;110344;1244;68638;-63
2022/03/21 10:37:05;;;;;;;12.00;10.60;;;;;;;17.96;15.30;99294.06;110423;1245;59739;-63
2022/03/21 10:39:38;;;;;;;12.10;10.30;;;;;;;19.08;15.51;99290.52;110419;1244;59605;-66
2022/03/21 10:42:09;;;;;;;13.20;11.40;;;;;;;19.26;14.04;99287.00;110164;1245;71561;-63
2022/03/21 10:44:38;;;;;;;14.20;12.60;;;;;;;19.52;14.14;99287.05;110127;1245;68610;-63
2022/03/21 10:47:09;;;;;;;11.80;10.70;;;;;;;18.71;13.76;99279.21;110120;1247;69552;-64
2022/03/21 10:49:46;;;;;;;11.10;9.80;;;;;;;19.11;14.31;99279.15;110111;1245;59663;-66
2022/03/21 10:52:21;;;;;;;10.50;9.30;;;;;;;20.31;13.76;99278.17;110339;1244;59691;-64
2022/03/21 10:54:53;;;;;;;10.80;9.70;;;;;;;20.35;13.38;99277.40;110139;1247;72312;-63
2022/03/21 10:57:36;;;;;;;9.90;8.90;;;;;;;20.89;12.74;99274.30;110353;1245;68588;-62
2022/03/21 11:00:15;;;;;;;10.90;9.80;;;;;;;21.09;12.43;99271.92;110417;1245;69450;-62
2022/03/21 11:03:06;;;;;;;11.80;10.50;;;;;;;21.16;12.84;99262.76;110380;1244;59681;-63
2022/03/21 11:05:37;;;;;;;10.00;8.80;;;;;;;21.75;12.54;99253.83;110407;1244;59643;-62
2022/03/21 11:08:09;;;;;;;10.30;9.30;;;;;;;21.83;11.94;99252.23;110331;1245;71106;-63
2022/03/21 11:10:39;;;;;;;9.50;8.50;;;;;;;22.16;11.69;99243.73;110326;1244;68586;-62
2022/03/21 11:13:10;;;;;;;11.60;10.30;;;;;;;21.61;11.75;99245.34;110127;1245;69438;-62
2022/03/21 11:15:40;;;;;;;9.30;8.30;;;;;;;21.65;11.72;99238.42;110097;1245;59691;-64
2022/03/21 11:18:11;;;;;;;9.20;8.30;;;;;;;21.68;11.65;99235.42;110087;1247;59694;-63
2022/03/21 11:20:41;;;;;;;9.90;8.90;;;;;;;22.08;11.81;99229.17;110194;1246;70762;-60
2022/03/21 11:23:12;;;;;;;10.90;9.80;;;;;;;22.38;11.59;99223.61;110180;1247;67903;-63
2022/03/21 11:25:49;;;;;;;11.10;10.00;;;;;;;22.20;11.68;99223.29;110197;1246;69480;-66
2022/03/21 11:28:41;;;;;;;9.00;8.10;;;;;;;21.67;11.89;99219.92;110100;1246;59602;-66
2022/03/21 11:31:22;;;;;;;9.70;8.60;;;;;;;21.48;11.44;99215.94;110076;1247;59791;-62
2022/03/21 11:34:13;;;;;;;11.80;10.60;;;;;;;21.36;11.77;99217.23;110205;1247;70824;-62
2022/03/21 11:36:51;;;;;;;11.90;10.60;;;;;;;21.51;12.20;99211.23;110044;1247;67917;-62
2022/03/21 11:39:22;;;;;;;12.60;11.40;;;;;;;21.63;12.17;99203.47;109819;1248;68648;-63
2022/03/21 11:42:11;;;;;;;14.40;11.70;;;;;;;21.47;12.30;99201.70;110160;1246;59710;-63
2022/03/21 11:45:00;;;;;;;10.00;8.90;;;;;;;22.04;11.93;99196.58;110075;1247;59685;-64
2022/03/21 11:47:30;;;;;;;11.10;10.10;;;;;;;22.31;11.47;99193.69;110098;1246;71341;-65
2022/03/21 11:50:00;;;;;;;10.40;9.40;;;;;;;22.23;11.43;99188.40;110148;1246;68174;-62
2022/03/21 11:53:08;;;;;;;10.50;9.40;;;;;;;21.83;11.97;99189.89;110179;1246;68505;-62
2022/03/21 11:55:43;;;;;;;11.00;9.90;;;;;;;21.43;11.92;99188.21;110060;1247;59798;-64
2022/03/21 11:58:38;;;;;;;10.70;9.60;;;;;;;21.41;12.11;99183.42;110085;1247;59657;-65
2022/03/21 12:01:18;;;;;;;11.10;10.00;;;;;;;21.41;12.37;99171.02;110146;1247;71477;-68